createdAt,value
2018-09-24T00:00:17.948Z,11.51
2018-09-24T00:01:14.983Z,11.49
2018-09-24T00:02:14.915Z,11.52
2018-09-24T00:03:14.776Z,11.53
2018-09-24T00:04:14.973Z,11.5
2018-09-24T00:05:14.996Z,11.47
2018-09-24T00:06:15.155Z,11.47
2018-09-24T00:07:14.923Z,11.43
2018-09-24T00:08:14.954Z,11.45
2018-09-24T00:09:15.469Z,11.45
2018-09-24T00:10:14.942Z,11.44
2018-09-24T00:11:14.791Z,11.48
2018-09-24T00:12:14.951Z,11.45
2018-09-24T00:13:15.224Z,11.47
2018-09-24T00:14:15.059Z,11.5
2018-09-24T00:15:14.776Z,11.58
2018-09-24T00:16:14.919Z,11.57
2018-09-24T00:17:14.936Z,11.6
2018-09-24T00:18:14.923Z,11.61
2018-09-24T00:19:14.979Z,11.58
2018-09-24T00:20:14.929Z,11.61
2018-09-24T00:21:14.884Z,11.65
2018-09-24T00:22:14.953Z,11.65
2018-09-24T00:23:14.752Z,11.65
2018-09-24T00:24:15.008Z,11.67
2018-09-24T00:25:14.934Z,11.67
2018-09-24T00:26:15.058Z,11.69
2018-09-24T00:27:14.930Z,11.66
2018-09-24T00:28:14.910Z,11.66
2018-09-24T00:29:14.959Z,11.65
2018-09-24T00:30:15.125Z,11.61
2018-09-24T00:31:14.945Z,11.61
2018-09-24T00:32:14.860Z,11.64
2018-09-24T00:33:14.874Z,11.62
2018-09-24T00:34:14.724Z,11.65
2018-09-24T00:35:14.743Z,11.65
2018-09-24T00:36:14.719Z,11.6
2018-09-24T00:37:14.719Z,11.62
2018-09-24T00:38:14.718Z,11.61
2018-09-24T00:39:14.882Z,11.57
2018-09-24T00:40:14.761Z,11.58
2018-09-24T00:41:14.756Z,11.59
2018-09-24T00:42:14.910Z,11.59
2018-09-24T00:43:15.377Z,11.58
2018-09-24T00:44:14.998Z,11.59
2018-09-24T00:45:14.909Z,11.61
2018-09-24T00:46:14.913Z,11.64
2018-09-24T00:47:14.844Z,11.66
2018-09-24T00:48:14.717Z,11.67
2018-09-24T00:49:14.957Z,11.65
2018-09-24T00:50:14.757Z,11.66
2018-09-24T00:51:14.868Z,11.65
2018-09-24T00:52:14.907Z,11.61
2018-09-24T00:53:15.027Z,11.6
2018-09-24T00:54:14.861Z,11.61
2018-09-24T00:55:15.078Z,11.57
2018-09-24T00:56:14.904Z,11.6
2018-09-24T00:57:14.912Z,11.57
2018-09-24T00:58:14.682Z,11.55
2018-09-24T00:59:14.683Z,11.55
2018-09-24T01:00:14.719Z,11.6
2018-09-24T01:01:15.453Z,11.64
2018-09-24T01:02:14.940Z,11.65
2018-09-24T01:03:14.709Z,11.67
2018-09-24T01:04:14.905Z,11.64
2018-09-24T01:05:14.939Z,11.64
2018-09-24T01:06:14.913Z,11.64
2018-09-24T01:07:14.941Z,11.66
2018-09-24T01:08:14.775Z,11.66
2018-09-24T01:09:14.966Z,11.66
2018-09-24T01:10:14.862Z,11.66
2018-09-24T01:11:14.749Z,11.68
2018-09-24T01:12:14.682Z,11.65
2018-09-24T01:13:14.865Z,11.64
2018-09-24T01:14:14.689Z,11.62
2018-09-24T01:15:14.598Z,11.56
2018-09-24T01:16:14.834Z,11.57
2018-09-24T01:17:14.921Z,11.6
2018-09-24T01:18:14.845Z,11.62
2018-09-24T01:19:14.791Z,11.6
2018-09-24T01:20:15.022Z,11.62
2018-09-24T01:21:14.736Z,11.67
2018-09-24T01:22:15.148Z,11.58
2018-09-24T01:23:15.386Z,11.59
2018-09-24T01:24:14.707Z,11.58
2018-09-24T01:25:14.694Z,11.61
2018-09-24T01:26:15.235Z,11.62
2018-09-24T01:27:14.880Z,11.64
2018-09-24T01:28:14.871Z,11.67
2018-09-24T01:29:14.817Z,11.66
2018-09-24T01:30:14.819Z,11.59
2018-09-24T01:31:14.875Z,11.6
2018-09-24T01:32:14.812Z,11.51
2018-09-24T01:33:14.988Z,11.56
2018-09-24T01:34:14.677Z,11.54
2018-09-24T01:35:14.755Z,11.54
2018-09-24T01:36:14.873Z,11.55
2018-09-24T01:37:14.989Z,11.55
2018-09-24T01:38:14.962Z,11.57
2018-09-24T01:39:14.826Z,11.57
2018-09-24T01:40:14.938Z,11.58
2018-09-24T01:41:14.943Z,11.57
2018-09-24T01:42:14.887Z,11.56
2018-09-24T01:43:14.790Z,11.56
2018-09-24T01:44:14.651Z,11.54
2018-09-24T01:45:14.732Z,11.55
2018-09-24T01:46:14.816Z,11.56
2018-09-24T01:47:14.620Z,11.59
2018-09-24T01:48:14.837Z,11.57
2018-09-24T01:49:14.857Z,11.6
2018-09-24T01:50:14.602Z,11.61
2018-09-24T01:51:15.171Z,11.6
2018-09-24T01:52:14.781Z,11.57
2018-09-24T01:53:14.652Z,11.58
2018-09-24T01:54:14.794Z,11.53
2018-09-24T01:55:14.839Z,11.52
2018-09-24T01:56:14.783Z,11.48
2018-09-24T01:57:14.783Z,11.44
2018-09-24T01:58:14.748Z,11.39
2018-09-24T01:59:14.637Z,11.36
2018-09-24T02:00:14.688Z,11.35
2018-09-24T02:01:14.737Z,11.33
2018-09-24T02:02:14.600Z,11.3
2018-09-24T02:03:14.805Z,11.34
2018-09-24T02:04:14.794Z,11.32
2018-09-24T02:05:14.857Z,11.34
2018-09-24T02:06:14.912Z,11.33
2018-09-24T02:07:14.683Z,11.29
2018-09-24T02:08:14.751Z,11.26
2018-09-24T02:09:14.671Z,11.23
2018-09-24T02:10:14.649Z,11.27
2018-09-24T02:11:14.828Z,11.31
2018-09-24T02:12:14.907Z,11.33
2018-09-24T02:13:14.810Z,11.35
2018-09-24T02:14:14.787Z,11.35
2018-09-24T02:15:14.975Z,11.34
2018-09-24T02:16:14.849Z,11.3
2018-09-24T02:17:14.850Z,11.31
2018-09-24T02:18:14.939Z,11.31
2018-09-24T02:19:14.755Z,11.3
2018-09-24T02:20:14.841Z,11.32
2018-09-24T02:21:14.831Z,11.31
2018-09-24T02:22:14.580Z,11.32
2018-09-24T02:23:14.647Z,11.32
2018-09-24T02:24:14.707Z,11.28
2018-09-24T02:25:14.689Z,11.25
2018-09-24T02:26:14.863Z,11.21
2018-09-24T02:27:14.812Z,11.25
2018-09-24T02:28:14.763Z,11.3
2018-09-24T02:29:15.049Z,11.3
2018-09-24T02:30:14.859Z,11.31
2018-09-24T02:31:14.764Z,11.33
2018-09-24T02:32:14.719Z,11.36
2018-09-24T02:33:14.780Z,11.35
2018-09-24T02:34:14.777Z,11.37
2018-09-24T02:35:14.730Z,11.34
2018-09-24T02:36:14.805Z,11.34
2018-09-24T02:37:14.634Z,11.37
2018-09-24T02:38:14.746Z,11.35
2018-09-24T02:39:14.589Z,11.34
2018-09-24T02:40:14.714Z,11.33
2018-09-24T02:41:14.799Z,11.29
2018-09-24T02:42:14.904Z,11.24
2018-09-24T02:43:15.238Z,11.24
2018-09-24T02:44:14.616Z,11.21
2018-09-24T02:45:14.749Z,11.17
2018-09-24T02:46:14.933Z,11.2
2018-09-24T02:47:14.714Z,11.18
2018-09-24T02:48:14.718Z,11.18
2018-09-24T02:49:14.684Z,11.2
2018-09-24T02:50:14.623Z,11.22
2018-09-24T02:51:14.733Z,11.18
2018-09-24T02:52:14.813Z,11.14
2018-09-24T02:53:14.567Z,11.15
2018-09-24T02:54:14.657Z,11.13
2018-09-24T02:55:14.720Z,11.13
2018-09-24T02:56:14.767Z,11.13
2018-09-24T02:57:14.732Z,11.12
2018-09-24T02:58:14.749Z,11.11
2018-09-24T02:59:14.552Z,11.12
2018-09-24T03:00:14.599Z,11.08
2018-09-24T03:01:15.304Z,11.08
2018-09-24T03:02:14.847Z,11.08
2018-09-24T03:03:14.608Z,11.1
2018-09-24T03:04:14.750Z,11.08
2018-09-24T03:05:14.745Z,11.02
2018-09-24T03:06:14.734Z,11.02
2018-09-24T03:07:14.747Z,11.01
2018-09-24T03:08:14.754Z,11.01
2018-09-24T03:09:14.831Z,11.03
2018-09-24T03:10:14.799Z,11.04
2018-09-24T03:11:14.603Z,11.06
2018-09-24T03:12:14.727Z,11.03
2018-09-24T03:13:14.519Z,10.98
2018-09-24T03:14:14.521Z,10.96
2018-09-24T03:15:14.668Z,10.92
2018-09-24T03:16:14.613Z,10.93
2018-09-24T03:17:14.629Z,10.87
2018-09-24T03:18:14.662Z,10.91
2018-09-24T03:19:14.694Z,10.9
2018-09-24T03:20:14.735Z,10.88
2018-09-24T03:21:14.898Z,10.89
2018-09-24T03:22:14.507Z,10.88
2018-09-24T03:23:14.651Z,10.9
2018-09-24T03:24:14.564Z,10.89
2018-09-24T03:25:14.619Z,10.9
2018-09-24T03:26:15.520Z,10.91
2018-09-24T03:27:14.504Z,10.9
2018-09-24T03:28:14.659Z,10.89
2018-09-24T03:29:14.525Z,10.9
2018-09-24T03:30:14.573Z,10.92
2018-09-24T03:31:14.511Z,10.93
2018-09-24T03:32:14.642Z,10.93
2018-09-24T03:33:14.641Z,10.94
2018-09-24T03:34:14.525Z,10.92
2018-09-24T03:35:14.482Z,10.85
2018-09-24T03:36:14.688Z,10.83
2018-09-24T03:37:14.676Z,10.79
2018-09-24T03:38:14.682Z,10.78
2018-09-24T03:39:14.692Z,10.75
2018-09-24T03:40:15.004Z,10.78
2018-09-24T03:41:14.707Z,10.75
2018-09-24T03:42:14.709Z,10.79
2018-09-24T03:43:14.554Z,10.79
2018-09-24T03:44:14.721Z,10.78
2018-09-24T03:45:14.603Z,10.82
2018-09-24T03:46:14.481Z,10.83
2018-09-24T03:47:14.574Z,10.85
2018-09-24T03:48:14.619Z,10.81
2018-09-24T03:49:14.657Z,10.8
2018-09-24T03:50:14.804Z,10.8
2018-09-24T03:51:14.441Z,10.79
2018-09-24T03:52:14.713Z,10.79
2018-09-24T03:53:14.630Z,10.79
2018-09-24T03:54:14.696Z,10.83
2018-09-24T03:55:14.654Z,10.82
2018-09-24T03:56:14.688Z,10.82
2018-09-24T03:57:14.719Z,10.83
2018-09-24T03:58:14.828Z,10.84
2018-09-24T03:59:14.761Z,10.84
2018-09-24T04:00:14.667Z,10.85
2018-09-24T04:01:14.549Z,10.88
2018-09-24T04:02:14.619Z,10.86
2018-09-24T04:03:14.528Z,10.89
2018-09-24T04:04:14.736Z,10.9
2018-09-24T04:05:14.643Z,10.9
2018-09-24T04:06:14.642Z,10.87
2018-09-24T04:07:14.544Z,10.88
2018-09-24T04:08:14.775Z,10.86
2018-09-24T04:09:14.818Z,10.81
2018-09-24T04:10:15.864Z,10.8
2018-09-24T04:11:14.793Z,10.74
2018-09-24T04:12:14.631Z,10.75
2018-09-24T04:13:14.451Z,10.75
2018-09-24T04:14:14.659Z,10.72
2018-09-24T04:15:14.614Z,10.69
2018-09-24T04:16:14.789Z,10.67
2018-09-24T04:17:14.616Z,10.67
2018-09-24T04:18:14.599Z,10.67
2018-09-24T04:19:14.637Z,10.66
2018-09-24T04:20:14.823Z,10.66
2018-09-24T04:21:14.592Z,10.65
2018-09-24T04:22:14.403Z,10.66
2018-09-24T04:23:14.484Z,10.66
2018-09-24T04:24:15.043Z,10.65
2018-09-24T04:25:14.773Z,10.63
2018-09-24T04:26:15.468Z,10.61
2018-09-24T04:27:14.639Z,10.6
2018-09-24T04:28:14.680Z,10.6
2018-09-24T04:29:14.610Z,10.57
2018-09-24T04:30:14.655Z,10.57
2018-09-24T04:31:14.456Z,10.52
2018-09-24T04:32:14.580Z,10.52
2018-09-24T04:33:14.510Z,10.52
2018-09-24T04:34:14.511Z,10.52
2018-09-24T04:35:14.413Z,10.52
2018-09-24T04:36:14.560Z,10.5
2018-09-24T04:37:14.692Z,10.5
2018-09-24T04:38:14.575Z,10.49
2018-09-24T04:39:14.618Z,10.47
2018-09-24T04:40:14.436Z,10.47
2018-09-24T04:41:14.546Z,10.46
2018-09-24T04:42:14.843Z,10.46
2018-09-24T04:43:14.825Z,10.43
2018-09-24T04:44:14.603Z,10.44
2018-09-24T04:45:14.537Z,10.42
2018-09-24T04:46:14.379Z,10.42
2018-09-24T04:47:14.378Z,10.42
2018-09-24T04:48:14.356Z,10.44
2018-09-24T04:49:15.182Z,10.4
2018-09-24T04:50:14.371Z,10.4
2018-09-24T04:51:14.566Z,10.4
2018-09-24T04:52:14.522Z,10.4
2018-09-24T04:53:14.552Z,10.41
2018-09-24T04:54:14.512Z,10.4
2018-09-24T04:55:14.544Z,10.4
2018-09-24T04:56:14.524Z,10.36
2018-09-24T04:57:14.606Z,10.35
2018-09-24T04:58:14.562Z,10.35
2018-09-24T04:59:14.593Z,10.31
2018-09-24T05:00:14.586Z,10.3
2018-09-24T05:01:14.492Z,10.28
2018-09-24T05:02:14.534Z,10.28
2018-09-24T05:03:14.716Z,10.28
2018-09-24T05:04:14.937Z,10.28
2018-09-24T05:05:14.490Z,10.25
2018-09-24T05:06:14.565Z,10.24
2018-09-24T05:07:14.370Z,10.23
2018-09-24T05:08:14.517Z,10.23
2018-09-24T05:09:14.512Z,10.22
2018-09-24T05:10:15.123Z,10.22
2018-09-24T05:11:14.387Z,10.2
2018-09-24T05:12:14.359Z,10.19
2018-09-24T05:13:14.585Z,10.21
2018-09-24T05:14:14.596Z,10.18
2018-09-24T05:15:14.562Z,10.21
2018-09-24T05:16:15.327Z,10.23
2018-09-24T05:17:14.490Z,10.2
2018-09-24T05:18:14.552Z,10.17
2018-09-24T05:19:14.556Z,10.16
2018-09-24T05:20:15.515Z,10.2
2018-09-24T05:21:14.390Z,10.18
2018-09-24T05:22:14.503Z,10.21
2018-09-24T05:23:14.609Z,10.18
2018-09-24T05:24:14.421Z,10.19
2018-09-24T05:25:14.558Z,10.17
2018-09-24T05:26:14.394Z,10.16
2018-09-24T05:27:14.647Z,10.15
2018-09-24T05:28:14.692Z,10.11
2018-09-24T05:29:14.618Z,10.1
2018-09-24T05:30:14.496Z,10.09
2018-09-24T05:31:14.477Z,10.09
2018-09-24T05:32:15.216Z,10.06
2018-09-24T05:33:14.640Z,10.05
2018-09-24T05:34:14.982Z,10.05
2018-09-24T05:35:14.329Z,10.05
2018-09-24T05:36:14.326Z,10.06
2018-09-24T05:37:14.850Z,10.05
2018-09-24T05:38:14.308Z,10.05
2018-09-24T05:39:14.455Z,10.05
2018-09-24T05:40:14.424Z,10.05
2018-09-24T05:41:15.240Z,10.04
2018-09-24T05:42:14.510Z,10.02
2018-09-24T05:43:14.339Z,9.99
2018-09-24T05:44:14.411Z,9.98
2018-09-24T05:45:14.328Z,9.97
2018-09-24T05:46:14.836Z,9.93
2018-09-24T05:47:14.475Z,9.94
2018-09-24T05:48:14.275Z,9.92
2018-09-24T05:49:14.485Z,9.93
2018-09-24T05:50:14.552Z,9.92
2018-09-24T05:51:14.389Z,9.92
2018-09-24T05:52:14.432Z,9.91
2018-09-24T05:53:14.768Z,9.9
2018-09-24T05:54:14.957Z,9.89
2018-09-24T05:55:14.446Z,9.86
2018-09-24T05:56:14.576Z,9.85
2018-09-24T05:57:14.257Z,9.85
2018-09-24T05:58:14.841Z,9.8
2018-09-24T05:59:14.486Z,9.77
2018-09-24T06:00:14.495Z,9.79
2018-09-24T06:01:14.255Z,9.78
2018-09-24T06:02:14.546Z,9.78
2018-09-24T06:03:14.311Z,9.79
2018-09-24T06:04:14.255Z,9.77
2018-09-24T06:05:14.419Z,9.77
2018-09-24T06:06:14.270Z,9.78
2018-09-24T06:07:14.224Z,9.79
2018-09-24T06:08:14.479Z,9.8
2018-09-24T06:09:14.446Z,9.83
2018-09-24T06:10:14.389Z,9.81
2018-09-24T06:11:14.224Z,9.85
2018-09-24T06:12:14.313Z,9.87
2018-09-24T06:13:14.351Z,9.88
2018-09-24T06:14:14.368Z,9.89
2018-09-24T06:15:14.231Z,9.92
2018-09-24T06:16:14.269Z,9.93
2018-09-24T06:17:14.440Z,9.96
2018-09-24T06:18:14.387Z,9.98
2018-09-24T06:19:14.404Z,9.99
2018-09-24T06:20:14.389Z,10.02
2018-09-24T06:21:14.379Z,10.06
2018-09-24T06:22:14.416Z,10.06
2018-09-24T06:23:14.392Z,10.1
2018-09-24T06:24:14.314Z,10.11
2018-09-24T06:25:14.713Z,10.15
2018-09-24T06:26:14.445Z,10.17
2018-09-24T06:27:14.419Z,10.2
2018-09-24T06:28:14.748Z,10.2
2018-09-24T06:29:14.398Z,10.21
2018-09-24T06:30:14.398Z,10.23
2018-09-24T06:31:14.486Z,10.26
2018-09-24T06:32:14.327Z,10.27
2018-09-24T06:33:14.376Z,10.28
2018-09-24T06:34:14.854Z,10.31
2018-09-24T06:35:14.400Z,10.29
2018-09-24T06:36:14.239Z,10.34
2018-09-24T06:37:14.359Z,10.36
2018-09-24T06:38:14.395Z,10.37
2018-09-24T06:39:14.559Z,10.38
2018-09-24T06:40:14.413Z,10.39
2018-09-24T06:41:14.935Z,10.39
2018-09-24T06:42:14.332Z,10.42
2018-09-24T06:43:14.361Z,10.45
2018-09-24T06:44:14.508Z,10.46
2018-09-24T06:45:14.412Z,10.47
2018-09-24T06:46:14.343Z,10.5
2018-09-24T06:47:14.413Z,10.51
2018-09-24T06:48:14.461Z,10.52
2018-09-24T06:49:14.350Z,10.56
2018-09-24T06:50:14.380Z,10.58
2018-09-24T06:51:14.348Z,10.62
2018-09-24T06:52:14.357Z,10.63
2018-09-24T06:53:14.395Z,10.66
2018-09-24T06:54:14.398Z,10.7
2018-09-24T06:55:14.471Z,10.67
2018-09-24T06:56:14.453Z,10.69
2018-09-24T06:57:14.322Z,10.74
2018-09-24T06:58:14.248Z,10.74
2018-09-24T06:59:14.231Z,10.72
2018-09-24T07:00:14.349Z,10.66
2018-09-24T07:01:14.521Z,10.65
2018-09-24T07:02:14.273Z,10.68
2018-09-24T07:03:14.271Z,10.72
2018-09-24T07:04:14.377Z,10.71
2018-09-24T07:05:14.455Z,10.67
2018-09-24T07:06:14.350Z,10.67
2018-09-24T07:07:14.411Z,10.66
2018-09-24T07:08:14.456Z,10.67
2018-09-24T07:09:14.343Z,10.67
2018-09-24T07:10:14.321Z,10.72
2018-09-24T07:11:14.637Z,10.73
2018-09-24T07:12:14.398Z,10.76
2018-09-24T07:13:16.843Z,10.73
2018-09-24T07:14:14.887Z,10.78
2018-09-24T07:15:14.320Z,10.79
2018-09-24T07:16:14.483Z,10.81
2018-09-24T07:17:14.326Z,10.84
2018-09-24T07:18:14.334Z,10.84
2018-09-24T07:19:14.377Z,10.87
2018-09-24T07:20:14.491Z,10.89
2018-09-24T07:21:14.294Z,10.9
2018-09-24T07:22:14.470Z,10.93
2018-09-24T07:23:14.304Z,10.98
2018-09-24T07:24:14.236Z,11.01
2018-09-24T07:25:14.478Z,11.05
2018-09-24T07:26:14.212Z,11.06
2018-09-24T07:27:14.380Z,11.06
2018-09-24T07:28:14.795Z,11.1
2018-09-24T07:29:14.381Z,11.1
2018-09-24T07:30:14.338Z,11.1
2018-09-24T07:31:14.291Z,11.13
2018-09-24T07:32:14.326Z,11.12
2018-09-24T07:33:15.298Z,11.19
2018-09-24T07:34:14.270Z,11.22
2018-09-24T07:35:14.408Z,11.23
2018-09-24T07:36:14.171Z,11.24
2018-09-24T07:37:14.292Z,11.26
2018-09-24T07:38:14.153Z,11.29
2018-09-24T07:39:14.310Z,11.29
2018-09-24T07:40:14.379Z,11.35
2018-09-24T07:41:14.266Z,11.37
2018-09-24T07:42:14.279Z,11.39
2018-09-24T07:43:15.504Z,11.37
2018-09-24T07:44:14.315Z,11.34
2018-09-24T07:45:14.142Z,11.35
2018-09-24T07:46:14.273Z,11.39
2018-09-24T07:47:14.310Z,11.42
2018-09-24T07:48:14.163Z,11.43
2018-09-24T07:49:14.320Z,11.47
2018-09-24T07:50:14.206Z,11.5
2018-09-24T07:51:14.322Z,11.53
2018-09-24T07:52:14.204Z,11.52
2018-09-24T07:53:14.319Z,11.55
2018-09-24T07:54:14.327Z,11.58
2018-09-24T07:55:14.480Z,11.61
2018-09-24T07:56:14.402Z,11.62
2018-09-24T07:57:14.272Z,11.61
2018-09-24T07:58:14.355Z,11.64
2018-09-24T07:59:14.269Z,11.65
2018-09-24T08:00:14.183Z,11.71
2018-09-24T08:01:14.171Z,11.69
2018-09-24T08:02:14.312Z,11.72
2018-09-24T08:03:14.087Z,11.73
2018-09-24T08:04:14.210Z,11.74
2018-09-24T08:05:14.242Z,11.72
2018-09-24T08:06:14.462Z,11.7
2018-09-24T08:07:15.213Z,11.64
2018-09-24T08:08:14.376Z,11.64
2018-09-24T08:09:14.207Z,11.65
2018-09-24T08:10:14.408Z,11.66
2018-09-24T08:11:14.476Z,11.66
2018-09-24T08:12:14.691Z,11.72
2018-09-24T08:13:14.985Z,11.73
2018-09-24T08:14:14.703Z,11.75
2018-09-24T08:15:14.069Z,11.75
2018-09-24T08:16:14.505Z,11.79
2018-09-24T08:17:14.178Z,11.81
2018-09-24T08:18:14.986Z,11.85
2018-09-24T08:19:14.256Z,11.87
2018-09-24T08:20:14.243Z,11.9
2018-09-24T08:21:14.584Z,11.91
2018-09-24T08:22:14.147Z,11.91
2018-09-24T08:23:14.306Z,11.88
2018-09-24T08:24:14.348Z,11.85
2018-09-24T08:25:14.201Z,11.86
2018-09-24T08:26:14.649Z,11.85
2018-09-24T08:27:14.334Z,11.84
2018-09-24T08:28:14.174Z,11.84
2018-09-24T08:29:14.221Z,11.87
2018-09-24T08:30:14.246Z,11.96
2018-09-24T08:31:14.212Z,12
2018-09-24T08:32:14.259Z,12.04
2018-09-24T08:33:14.277Z,12.08
2018-09-24T08:34:14.240Z,12.12
2018-09-24T08:35:14.113Z,12.16
2018-09-24T08:36:14.830Z,12.18
2018-09-24T08:37:14.090Z,12.28
2018-09-24T08:38:14.759Z,12.3
2018-09-24T08:39:14.289Z,12.27
2018-09-24T08:40:14.218Z,12.29
2018-09-24T08:41:14.345Z,12.37
2018-09-24T08:42:14.187Z,12.39
2018-09-24T08:43:14.236Z,12.4
2018-09-24T08:44:15.516Z,12.46
2018-09-24T08:45:14.400Z,12.42
2018-09-24T08:46:14.204Z,12.46
2018-09-24T08:47:14.401Z,12.42
2018-09-24T08:48:14.218Z,12.42
2018-09-24T08:49:14.376Z,12.46
2018-09-24T08:50:14.237Z,12.47
2018-09-24T08:51:14.215Z,12.48
2018-09-24T08:52:14.247Z,12.52
2018-09-24T08:53:14.441Z,12.54
2018-09-24T08:54:14.069Z,12.58
2018-09-24T08:55:14.219Z,12.59
2018-09-24T08:56:14.222Z,12.61
2018-09-24T08:57:15.078Z,12.56
2018-09-24T08:58:13.995Z,12.55
2018-09-24T08:59:14.189Z,12.56
2018-09-24T09:00:14.103Z,12.58
2018-09-24T09:01:14.164Z,12.58
2018-09-24T09:02:14.276Z,12.58
2018-09-24T09:03:14.182Z,12.54
2018-09-24T09:04:14.379Z,12.52
2018-09-24T09:05:14.150Z,12.52
2018-09-24T09:06:14.179Z,12.54
2018-09-24T09:07:14.352Z,12.56
2018-09-24T09:08:14.610Z,12.55
2018-09-24T09:09:14.210Z,12.53
2018-09-24T09:10:14.261Z,12.54
2018-09-24T09:11:14.226Z,12.58
2018-09-24T09:12:14.163Z,12.55
2018-09-24T09:13:14.245Z,12.52
2018-09-24T09:14:14.132Z,12.51
2018-09-24T09:15:14.035Z,12.47
2018-09-24T09:16:14.557Z,12.47
2018-09-24T09:17:13.961Z,12.46
2018-09-24T09:18:14.300Z,12.45
2018-09-24T09:19:14.306Z,12.47
2018-09-24T09:20:14.328Z,12.48
2018-09-24T09:21:14.210Z,12.47
2018-09-24T09:22:14.242Z,12.43
2018-09-24T09:23:14.135Z,12.46
2018-09-24T09:24:14.107Z,12.49
2018-09-24T09:25:14.182Z,12.52
2018-09-24T09:26:14.415Z,12.49
2018-09-24T09:27:13.985Z,12.52
2018-09-24T09:28:14.193Z,12.53
2018-09-24T09:29:14.698Z,12.54
2018-09-24T09:30:13.984Z,12.57
2018-09-24T09:31:14.123Z,12.62
2018-09-24T09:32:14.201Z,12.58
2018-09-24T09:33:14.235Z,12.64
2018-09-24T09:34:14.154Z,12.67
2018-09-24T09:35:14.799Z,12.72
2018-09-24T09:36:14.220Z,12.72
2018-09-24T09:37:14.226Z,12.82
2018-09-24T09:38:14.265Z,12.94
2018-09-24T09:39:13.955Z,13.06
2018-09-24T09:40:14.117Z,13.09
2018-09-24T09:41:15.075Z,13.19
2018-09-24T09:42:14.234Z,13.16
2018-09-24T09:43:14.202Z,13.16
2018-09-24T09:44:14.142Z,13.19
2018-09-24T09:45:14.252Z,13.11
2018-09-24T09:46:14.153Z,13.2
2018-09-24T09:47:14.131Z,13.2
2018-09-24T09:48:14.291Z,13.26
2018-09-24T09:49:13.977Z,13.24
2018-09-24T09:50:14.246Z,13.27
2018-09-24T09:51:14.385Z,13.28
2018-09-24T09:52:13.965Z,13.33
2018-09-24T09:53:14.143Z,13.29
2018-09-24T09:54:13.972Z,13.38
2018-09-24T09:55:14.171Z,13.45
2018-09-24T09:56:14.269Z,13.44
2018-09-24T09:57:14.170Z,13.45
2018-09-24T09:58:14.242Z,13.48
2018-09-24T09:59:15.065Z,13.53
2018-09-24T10:00:14.006Z,13.55
2018-09-24T10:01:14.089Z,13.59
2018-09-24T10:02:14.286Z,13.72
2018-09-24T10:03:14.278Z,13.75
2018-09-24T10:04:14.050Z,13.82
2018-09-24T10:05:13.944Z,13.72
2018-09-24T10:06:13.986Z,13.61
2018-09-24T10:07:14.446Z,13.59
2018-09-24T10:08:13.909Z,13.59
2018-09-24T10:09:14.282Z,13.68
2018-09-24T10:10:14.206Z,13.72
2018-09-24T10:11:15.089Z,13.66
2018-09-24T10:12:14.194Z,13.64
2018-09-24T10:13:13.890Z,13.6
2018-09-24T10:14:14.234Z,13.57
2018-09-24T10:15:14.192Z,13.53
2018-09-24T10:16:13.986Z,13.53
2018-09-24T10:17:14.112Z,13.52
2018-09-24T10:18:13.924Z,13.41
2018-09-24T10:19:14.148Z,13.36
2018-09-24T10:20:14.055Z,13.37
2018-09-24T10:21:14.080Z,13.33
2018-09-24T10:22:14.247Z,13.34
2018-09-24T10:23:14.152Z,13.35
2018-09-24T10:24:14.390Z,13.31
2018-09-24T10:25:14.084Z,13.32
2018-09-24T10:26:14.298Z,13.38
2018-09-24T10:27:13.880Z,13.42
2018-09-24T10:28:14.155Z,13.47
2018-09-24T10:29:21.243Z,13.49
2018-09-24T10:30:14.348Z,13.54
2018-09-24T10:31:13.949Z,13.56
2018-09-24T10:32:15.663Z,13.5
2018-09-24T10:33:14.038Z,13.51
2018-09-24T10:34:15.541Z,13.48
2018-09-24T10:35:15.761Z,13.49
2018-09-24T10:36:13.878Z,13.51
2018-09-24T10:37:15.399Z,13.52
2018-09-24T10:38:14.176Z,13.54
2018-09-24T10:39:13.863Z,13.5
2018-09-24T10:40:13.906Z,13.5
2018-09-24T10:41:13.876Z,13.53
2018-09-24T10:42:13.825Z,13.57
2018-09-24T10:43:13.989Z,13.6
2018-09-24T10:44:13.883Z,13.67
2018-09-24T10:45:13.919Z,13.73
2018-09-24T10:46:14.193Z,13.82
2018-09-24T10:47:13.853Z,13.86
2018-09-24T10:48:14.032Z,13.97
2018-09-24T10:49:13.845Z,14
2018-09-24T10:50:14.266Z,14.06
2018-09-24T10:51:14.237Z,14.08
2018-09-24T10:52:14.003Z,14.08
2018-09-24T10:53:14.115Z,14.06
2018-09-24T10:54:13.941Z,14.14
2018-09-24T10:55:14.029Z,14.18
2018-09-24T10:56:13.984Z,14.26
2018-09-24T10:57:14.051Z,14.33
2018-09-24T10:58:13.971Z,14.27
2018-09-24T10:59:14.197Z,14.3
2018-09-24T11:00:14.117Z,14.41
2018-09-24T11:01:14.526Z,14.45
2018-09-24T11:02:14.002Z,14.46
2018-09-24T11:03:14.316Z,14.48
2018-09-24T11:04:14.013Z,14.46
2018-09-24T11:05:13.914Z,14.41
2018-09-24T11:06:14.351Z,14.46
2018-09-24T11:07:14.001Z,14.4
2018-09-24T11:08:13.939Z,14.4
2018-09-24T11:09:14.013Z,14.34
2018-09-24T11:10:14.990Z,14.25
2018-09-24T11:11:14.038Z,14.29
2018-09-24T11:12:13.826Z,14.32
2018-09-24T11:13:13.994Z,14.39
2018-09-24T11:14:14.183Z,14.47
2018-09-24T11:15:14.204Z,14.49
2018-09-24T11:16:16.726Z,14.6
2018-09-24T11:17:18.385Z,14.62
2018-09-24T11:18:14.374Z,14.69
2018-09-24T11:19:14.017Z,14.79
2018-09-24T11:20:13.927Z,14.98
2018-09-24T11:21:14.162Z,14.9
2018-09-24T11:22:14.265Z,14.95
2018-09-24T11:23:13.931Z,14.89
2018-09-24T11:24:14.256Z,14.82
2018-09-24T11:25:14.252Z,14.76
2018-09-24T11:27:13.947Z,14.67
2018-09-24T11:28:14.387Z,14.7
2018-09-24T11:29:14.353Z,14.65
2018-09-24T11:30:14.300Z,14.65
2018-09-24T11:31:13.975Z,14.68
2018-09-24T11:32:14.403Z,14.69
2018-09-24T11:33:14.199Z,14.77
2018-09-24T11:34:14.523Z,14.92
2018-09-24T11:35:14.026Z,14.96
2018-09-24T11:36:14.170Z,15.1
2018-09-24T11:37:13.753Z,15.24
2018-09-24T11:38:14.065Z,15.3
2018-09-24T11:39:14.282Z,15.2
2018-09-24T11:40:14.147Z,15.13
2018-09-24T11:41:14.045Z,15.18
2018-09-24T11:42:14.350Z,15.14
2018-09-24T11:43:14.287Z,15
2018-09-24T11:44:14.074Z,14.9
2018-09-24T11:45:14.069Z,14.9
2018-09-24T11:46:14.104Z,14.95
2018-09-24T11:47:14.702Z,14.91
2018-09-24T11:48:14.417Z,14.9
2018-09-24T11:49:14.134Z,14.83
2018-09-24T11:50:13.940Z,14.81
2018-09-24T11:51:14.131Z,14.81
2018-09-24T11:52:14.139Z,14.84
2018-09-24T11:53:13.941Z,14.88
2018-09-24T11:54:14.050Z,14.94
2018-09-24T11:55:13.953Z,15.04
2018-09-24T11:56:14.527Z,15.13
2018-09-24T11:57:14.316Z,15.15
2018-09-24T11:58:13.960Z,15.11
2018-09-24T11:59:14.016Z,15.17
2018-09-24T12:00:14.067Z,15.22
2018-09-24T12:01:14.011Z,15.21
2018-09-24T12:02:14.268Z,15.21
2018-09-24T12:03:14.315Z,15.26
2018-09-24T12:04:13.926Z,15.28
2018-09-24T12:05:14.008Z,15.27
2018-09-24T12:06:14.252Z,15.26
2018-09-24T12:07:13.931Z,15.21
2018-09-24T12:08:14.069Z,15.25
2018-09-24T12:09:14.041Z,15.27
2018-09-24T12:10:14.773Z,15.27
2018-09-24T12:11:16.960Z,15.33
2018-09-24T12:12:14.071Z,15.33
2018-09-24T12:13:14.071Z,15.36
2018-09-24T12:14:14.085Z,15.33
2018-09-24T12:16:13.768Z,15.34
2018-09-24T12:17:14.041Z,15.33
2018-09-24T12:18:14.144Z,15.36
2018-09-24T12:19:14.041Z,15.34
2018-09-24T12:20:14.103Z,15.33
2018-09-24T12:21:13.977Z,15.31
2018-09-24T12:22:13.727Z,15.32
2018-09-24T12:23:14.891Z,15.27
2018-09-24T12:24:14.704Z,15.29
2018-09-24T12:25:14.091Z,15.28
2018-09-24T12:26:15.306Z,15.3
2018-09-24T12:27:14.505Z,15.39
2018-09-24T12:28:14.480Z,15.48
2018-09-24T12:29:15.110Z,15.54
2018-09-24T12:30:13.909Z,15.54
2018-09-24T12:31:14.015Z,15.5
2018-09-24T12:32:13.920Z,15.58
2018-09-24T12:33:13.900Z,15.6
2018-09-24T12:34:14.023Z,15.57
2018-09-24T12:35:14.102Z,15.54
2018-09-24T12:36:14.051Z,15.56
2018-09-24T12:37:13.942Z,15.61
2018-09-24T12:38:14.172Z,15.77
2018-09-24T12:39:14.401Z,15.76
2018-09-24T12:40:13.985Z,15.74
2018-09-24T12:41:13.964Z,15.76
2018-09-24T12:42:13.959Z,15.78
2018-09-24T12:43:14.072Z,15.76
2018-09-24T12:44:14.076Z,15.77
2018-09-24T12:45:13.910Z,15.75
2018-09-24T12:46:14.004Z,15.8
2018-09-24T12:47:13.788Z,15.76
2018-09-24T12:48:14.469Z,15.75
2018-09-24T12:49:13.928Z,15.79
2018-09-24T12:50:13.852Z,15.86
2018-09-24T12:51:14.040Z,15.8
2018-09-24T12:52:14.072Z,15.84
2018-09-24T12:53:14.151Z,15.85
2018-09-24T12:54:14.401Z,15.89
2018-09-24T12:55:13.991Z,15.88
2018-09-24T12:56:14.047Z,15.9
2018-09-24T12:57:13.902Z,15.92
2018-09-24T12:58:14.114Z,15.95